You are listening to:
KORD App (10R/28C) - Chicago, Illinois, United States

KORD 081351Z 00000KT 10SM FEW150 BKN250 M02/M05 A3026 RMK AO2 SLP256 T10221050

If stream doesn't start automatically press the play button
If stream stops then reload player then press play